Time;durP1;ratioP1;P1;durP2;ratioP2;P2;SDS_P1;SDS_P2;PMS_P1;PMS_P2;Temp;Humidity;BMP_temperature;BMP_pressure;BME280_temperature;BME280_humidity;BME280_pressure;Samples;Min_cycle;Max_cycle;Signal;HPM_P1;HPM_P2
2022/09/22 00:00:30;;;;;;;9.32;8.23;;;10.30;99.90;;;;;;5082190;28;20040;-63
2022/09/22 00:02:58;;;;;;;10.40;7.95;;;10.40;99.90;;;;;;5081731;28;20434;-63
2022/09/22 00:05:25;;;;;;;9.05;7.10;;;10.30;99.90;;;;;;5099160;28;20036;-63
2022/09/22 00:07:52;;;;;;;12.57;8.40;;;10.20;99.90;;;;;;5098911;28;20048;-63
2022/09/22 00:10:20;;;;;;;9.95;7.72;;;10.30;99.90;;;;;;5099056;28;20036;-63
2022/09/22 00:12:47;;;;;;;10.02;7.35;;;10.30;99.90;;;;;;5081563;28;20082;-64
2022/09/22 00:15:13;;;;;;;9.48;7.18;;;10.20;99.90;;;;;;5099145;28;20032;-64
2022/09/22 00:17:39;;;;;;;10.30;8.13;;;10.10;99.90;;;;;;5099017;28;20093;-64
2022/09/22 00:20:05;;;;;;;9.55;8.23;;;10.10;99.90;;;;;;5098831;28;20371;-64
2022/09/22 00:22:32;;;;;;;9.88;8.02;;;10.10;99.90;;;;;;5081544;28;20299;-63
2022/09/22 00:24:58;;;;;;;9.65;7.80;;;10.10;99.90;;;;;;5098836;28;20107;-64
2022/09/22 00:27:25;;;;;;;9.25;7.72;;;10.00;99.90;;;;;;5081152;28;20127;-64
2022/09/22 00:29:51;;;;;;;12.63;7.70;;;9.90;99.90;;;;;;5081517;28;20032;-64
2022/09/22 00:32:17;;;;;;;12.18;8.13;;;10.00;99.90;;;;;;5081071;28;20115;-64
2022/09/22 00:34:44;;;;;;;9.25;7.50;;;9.90;99.90;;;;;;5098651;28;20051;-63
2022/09/22 00:37:10;;;;;;;10.70;8.00;;;10.00;99.90;;;;;;5098575;28;20051;-63
2022/09/22 00:39:36;;;;;;;9.25;7.40;;;10.00;99.90;;;;;;5098569;28;20036;-63
2022/09/22 00:42:03;;;;;;;11.52;8.90;;;9.90;99.90;;;;;;5098434;28;20091;-63
2022/09/22 00:44:28;;;;;;;12.02;8.18;;;10.00;99.90;;;;;;5098705;28;20099;-64
2022/09/22 00:47:13;;;;;;;9.02;7.90;;;10.00;99.90;;;;;;5064051;28;20035;-64
2022/09/22 00:49:50;;;;;;;15.38;8.55;;;9.90;99.90;;;;;;5098679;28;20081;-63
2022/09/22 00:52:36;;;;;;;9.93;7.85;;;10.00;99.90;;;;;;5098332;28;20044;-63
2022/09/22 00:55:06;;;;;;;12.45;8.77;;;10.00;99.90;;;;;;5080629;28;20036;-64
2022/09/22 00:57:35;;;;;;;10.55;8.38;;;9.90;99.90;;;;;;5080720;28;20024;-63
2022/09/22 01:00:04;;;;;;;10.52;8.52;;;9.90;99.90;;;;;;5098146;28;20302;-63
2022/09/22 01:02:30;;;;;;;11.18;8.15;;;9.80;99.90;;;;;;5098097;28;20043;-63
2022/09/22 01:04:56;;;;;;;11.15;8.20;;;9.80;99.90;;;;;;5098046;28;20035;-63
2022/09/22 01:07:26;;;;;;;10.57;8.25;;;9.80;99.90;;;;;;5097782;28;20449;-63
2022/09/22 01:09:54;;;;;;;9.85;8.18;;;9.80;99.90;;;;;;5098007;28;20028;-63
2022/09/22 01:12:22;;;;;;;10.07;8.23;;;9.70;99.90;;;;;;5097988;28;20292;-63
2022/09/22 01:15:15;;;;;;;12.43;8.30;;;9.60;99.90;;;;;;5098027;28;20277;-64
2022/09/22 01:18:07;;;;;;;8.75;7.90;;;9.60;99.90;;;;;;5098167;28;20115;-63
2022/09/22 01:20:51;;;;;;;10.95;8.38;;;9.70;99.90;;;;;;5097909;28;20063;-66
2022/09/22 01:23:35;;;;;;;10.02;8.18;;;9.60;99.90;;;;;;5080230;28;20032;-64
2022/09/22 01:26:12;;;;;;;9.27;8.32;;;9.60;99.90;;;;;;5097694;28;20036;-63
2022/09/22 01:29:12;;;;;;;13.13;8.48;;;9.70;99.90;;;;;;5097988;28;20395;-63
2022/09/22 01:31:45;;;;;;;10.23;9.05;;;9.60;99.90;;;;;;5079981;28;20031;-63
2022/09/22 01:34:23;;;;;;;10.93;8.88;;;9.60;99.90;;;;;;5097949;28;20035;-64
2022/09/22 01:37:34;;;;;;;11.52;8.70;;;9.60;99.90;;;;;;5097381;28;20089;-64
2022/09/22 01:40:19;;;;;;;10.15;9.00;;;9.60;99.90;;;;;;5035926;28;20283;-63
2022/09/22 01:43:04;;;;;;;11.25;8.68;;;9.50;99.90;;;;;;5036237;28;20037;-63
2022/09/22 01:45:30;;;;;;;9.35;7.82;;;9.50;99.90;;;;;;5081330;28;20101;-64
2022/09/22 01:48:18;;;;;;;10.43;8.68;;;9.50;99.90;;;;;;5097290;28;20411;-64
2022/09/22 01:50:55;;;;;;;11.25;8.57;;;9.50;99.90;;;;;;5096837;28;20044;-63
2022/09/22 01:53:26;;;;;;;10.10;8.98;;;9.40;99.90;;;;;;5063072;28;20129;-64
2022/09/22 01:56:00;;;;;;;14.95;9.25;;;9.50;99.90;;;;;;5097268;28;20399;-63
2022/09/22 01:58:33;;;;;;;10.23;8.68;;;9.50;99.90;;;;;;5097788;28;20024;-63
2022/09/22 02:01:15;;;;;;;10.95;8.20;;;9.50;99.90;;;;;;5097705;28;20028;-64
2022/09/22 02:03:54;;;;;;;10.13;8.60;;;9.50;99.90;;;;;;5097773;28;20028;-63
2022/09/22 02:06:33;;;;;;;12.65;8.73;;;9.40;99.90;;;;;;5097316;28;20083;-63
2022/09/22 02:09:06;;;;;;;14.15;9.38;;;9.40;99.90;;;;;;5097620;28;20024;-63
2022/09/22 02:11:32;;;;;;;10.07;9.02;;;9.40;99.90;;;;;;5097222;28;20531;-64
2022/09/22 02:14:00;;;;;;;10.82;8.82;;;9.40;99.90;;;;;;5079985;28;20020;-63
2022/09/22 02:16:26;;;;;;;10.52;8.80;;;9.30;99.90;;;;;;5096974;28;20032;-63
2022/09/22 02:19:09;;;;;;;11.98;9.25;;;9.40;99.90;;;;;;5097473;28;20028;-63
2022/09/22 02:21:35;;;;;;;9.95;8.60;;;9.20;99.90;;;;;;5096988;28;20039;-63
2022/09/22 02:24:01;;;;;;;11.50;9.50;;;9.30;99.90;;;;;;5096926;28;20047;-63
2022/09/22 02:26:30;;;;;;;11.48;9.43;;;9.40;99.90;;;;;;5079371;28;20301;-63
2022/09/22 02:29:03;;;;;;;12.18;9.85;;;9.30;99.90;;;;;;5096897;28;20044;-64
2022/09/22 02:31:32;;;;;;;10.90;9.23;;;9.40;99.90;;;;;;5097246;28;20386;-63
2022/09/22 02:33:59;;;;;;;13.57;9.32;;;9.40;99.90;;;;;;5079259;28;20028;-63
2022/09/22 02:37:04;;;;;;;9.55;8.57;;;9.30;99.90;;;;;;5062630;28;20042;-63
2022/09/22 02:39:42;;;;;;;12.05;9.63;;;9.30;99.90;;;;;;5097034;28;20036;-63
2022/09/22 02:42:28;;;;;;;12.52;9.25;;;9.30;99.90;;;;;;5079503;28;20032;-63
2022/09/22 02:45:03;;;;;;;10.68;8.82;;;9.20;99.90;;;;;;5079224;28;20295;-63
2022/09/22 02:47:50;;;;;;;10.88;9.57;;;9.20;99.90;;;;;;5079099;28;20032;-63
2022/09/22 02:50:20;;;;;;;10.90;8.77;;;9.10;99.90;;;;;;5100228;28;20036;-63
2022/09/22 02:52:50;;;;;;;11.15;9.77;;;9.10;99.90;;;;;;5100623;28;20118;-63
2022/09/22 02:55:17;;;;;;;12.20;9.82;;;9.10;99.90;;;;;;5082886;28;20016;-63
2022/09/22 02:57:42;;;;;;;11.45;9.85;;;9.10;99.90;;;;;;5083075;28;20035;-64
2022/09/22 03:00:09;;;;;;;12.00;9.57;;;9.10;99.90;;;;;;5100382;28;20025;-63
2022/09/22 03:02:35;;;;;;;12.25;9.85;;;9.10;99.90;;;;;;5066114;28;20027;-63
2022/09/22 03:05:02;;;;;;;11.00;9.55;;;9.10;99.90;;;;;;5100360;28;20040;-62
2022/09/22 03:07:28;;;;;;;10.18;9.07;;;9.00;99.90;;;;;;5100154;28;20052;-63
2022/09/22 03:09:54;;;;;;;10.30;9.25;;;9.10;99.90;;;;;;5100356;28;20028;-63
2022/09/22 03:12:20;;;;;;;11.57;9.70;;;9.10;99.90;;;;;;5100255;28;20115;-63
2022/09/22 03:14:45;;;;;;;14.15;10.27;;;9.00;99.90;;;;;;5100168;28;20032;-63
2022/09/22 03:17:11;;;;;;;12.70;10.55;;;9.00;99.90;;;;;;5082581;28;20119;-63
2022/09/22 03:19:37;;;;;;;11.50;10.02;;;9.00;99.90;;;;;;5100444;28;20399;-63
2022/09/22 03:22:03;;;;;;;13.70;11.60;;;8.90;99.90;;;;;;5100075;28;20047;-63
2022/09/22 03:24:28;;;;;;;15.55;11.40;;;8.90;99.90;;;;;;5099989;28;20036;-63
2022/09/22 03:26:54;;;;;;;12.57;11.18;;;8.90;99.90;;;;;;5082404;28;20376;-63
2022/09/22 03:29:20;;;;;;;15.85;11.52;;;8.80;99.90;;;;;;5082343;28;20032;-63
2022/09/22 03:31:46;;;;;;;15.80;11.55;;;8.80;99.90;;;;;;5099863;28;20399;-63
2022/09/22 03:34:12;;;;;;;13.82;11.70;;;8.70;99.90;;;;;;5082644;28;20036;-63
2022/09/22 03:36:38;;;;;;;12.38;11.05;;;8.70;99.90;;;;;;5065438;28;20090;-63
2022/09/22 03:39:03;;;;;;;14.77;11.20;;;8.70;99.90;;;;;;5099673;28;20482;-63
2022/09/22 03:41:30;;;;;;;16.00;11.55;;;8.80;99.90;;;;;;5082077;28;20345;-63
2022/09/22 03:43:57;;;;;;;15.00;11.70;;;8.70;99.90;;;;;;5099648;28;20039;-63
2022/09/22 03:46:23;;;;;;;12.02;10.80;;;8.70;99.90;;;;;;5099470;28;20392;-64
2022/09/22 03:48:50;;;;;;;13.95;11.30;;;8.70;99.90;;;;;;5082146;28;20028;-65
2022/09/22 03:51:16;;;;;;;13.18;11.57;;;8.70;99.90;;;;;;5065197;28;20035;-63
2022/09/22 03:53:42;;;;;;;12.85;11.23;;;8.70;99.90;;;;;;5065193;28;20126;-63
2022/09/22 03:56:10;;;;;;;14.15;11.02;;;8.80;99.90;;;;;;5081936;28;20112;-65
2022/09/22 03:58:37;;;;;;;12.05;10.85;;;8.80;99.90;;;;;;5099947;28;20093;-64
2022/09/22 04:01:04;;;;;;;14.85;11.18;;;8.70;99.90;;;;;;5081462;28;20085;-63
2022/09/22 04:03:30;;;;;;;12.90;10.48;;;8.70;99.90;;;;;;5081853;28;20395;-63
2022/09/22 04:05:57;;;;;;;14.18;11.05;;;8.70;99.90;;;;;;5081421;28;20135;-64
2022/09/22 04:08:22;;;;;;;13.45;11.45;;;8.60;99.90;;;;;;5099367;28;20510;-64
2022/09/22 04:10:48;;;;;;;12.20;10.90;;;8.70;99.90;;;;;;5081483;28;20119;-64
2022/09/22 04:13:14;;;;;;;14.27;11.20;;;8.60;99.90;;;;;;5081443;28;20035;-62
2022/09/22 04:15:41;;;;;;;15.20;11.80;;;8.60;99.90;;;;;;5081401;28;20074;-64
2022/09/22 04:18:06;;;;;;;15.55;11.70;;;8.60;99.90;;;;;;5081374;28;20316;-64
2022/09/22 04:20:33;;;;;;;13.93;11.50;;;8.50;99.90;;;;;;5064910;28;20036;-64
2022/09/22 04:22:59;;;;;;;15.23;11.15;;;8.60;99.90;;;;;;5081467;28;20083;-63
2022/09/22 04:25:24;;;;;;;17.35;12.18;;;8.50;99.90;;;;;;5098861;28;20031;-63
2022/09/22 04:27:50;;;;;;;14.55;12.32;;;8.50;99.90;;;;;;5064572;28;20093;-64
2022/09/22 04:30:16;;;;;;;14.13;11.93;;;8.50;99.90;;;;;;5081241;28;20030;-64
2022/09/22 04:32:43;;;;;;;13.32;11.93;;;8.50;99.90;;;;;;5099053;28;20135;-64
2022/09/22 04:35:09;;;;;;;13.25;11.93;;;8.40;99.90;;;;;;5081425;28;20040;-63
2022/09/22 04:37:34;;;;;;;14.95;11.43;;;8.40;99.90;;;;;;5081141;28;20445;-64
2022/09/22 04:40:00;;;;;;;16.73;11.68;;;8.30;99.90;;;;;;5081030;28;20031;-64
2022/09/22 04:42:26;;;;;;;15.35;11.85;;;8.30;99.90;;;;;;5098539;28;20028;-64
2022/09/22 04:44:55;;;;;;;14.68;11.50;;;8.30;99.90;;;;;;5081048;28;20044;-63
2022/09/22 04:47:21;;;;;;;13.57;12.18;;;8.30;99.90;;;;;;5064636;28;20043;-63
2022/09/22 04:49:47;;;;;;;14.88;12.07;;;8.50;99.90;;;;;;5098468;28;20391;-63
2022/09/22 04:52:13;;;;;;;16.38;13.15;;;8.40;99.90;;;;;;5098315;28;20031;-63
2022/09/22 04:54:39;;;;;;;14.52;12.27;;;8.40;99.90;;;;;;5080597;28;20346;-64
2022/09/22 04:57:05;;;;;;;14.57;12.10;;;8.40;99.90;;;;;;5063979;28;20300;-64
2022/09/22 04:59:30;;;;;;;15.68;12.48;;;8.40;99.90;;;;;;5098741;28;20032;-62
2022/09/22 05:01:56;;;;;;;16.73;12.38;;;8.40;99.90;;;;;;5098170;28;20047;-63
2022/09/22 05:04:22;;;;;;;14.45;12.95;;;8.40;99.90;;;;;;5098093;28;20328;-63
2022/09/22 05:06:48;;;;;;;15.20;12.43;;;8.30;99.90;;;;;;5097698;28;20090;-63
2022/09/22 05:09:14;;;;;;;18.10;13.30;;;8.40;99.90;;;;;;5080812;28;20115;-63
2022/09/22 05:11:40;;;;;;;17.05;12.45;;;8.40;99.90;;;;;;5097129;28;20270;-63
2022/09/22 05:14:05;;;;;;;14.35;12.48;;;8.50;99.90;;;;;;5098303;28;20050;-64
2022/09/22 05:16:32;;;;;;;19.75;14.10;;;8.40;99.90;;;;;;5063588;28;20032;-64
2022/09/22 05:18:58;;;;;;;17.85;14.07;;;8.40;99.90;;;;;;5098586;28;20307;-63
2022/09/22 05:21:24;;;;;;;18.02;14.07;;;8.40;99.90;;;;;;5080146;28;20043;-63
2022/09/22 05:23:50;;;;;;;17.33;14.13;;;8.40;99.90;;;;;;5097715;28;20439;-63
2022/09/22 05:26:15;;;;;;;20.10;15.32;;;8.30;99.90;;;;;;5097409;28;20040;-63
2022/09/22 05:28:41;;;;;;;19.38;14.10;;;8.30;99.90;;;;;;5097370;28;20063;-63
2022/09/22 05:31:08;;;;;;;16.48;13.75;;;8.30;99.90;;;;;;5097874;28;20040;-63
2022/09/22 05:33:34;;;;;;;15.18;13.40;;;8.30;99.90;;;;;;5079865;28;20109;-62
2022/09/22 05:36:00;;;;;;;18.75;13.90;;;8.30;99.90;;;;;;5079888;28;20036;-63
2022/09/22 05:38:26;;;;;;;18.55;14.38;;;8.30;99.90;;;;;;5079778;28;20028;-63
2022/09/22 05:40:52;;;;;;;16.85;13.70;;;8.30;99.90;;;;;;5079741;28;20036;-64
2022/09/22 05:43:18;;;;;;;20.70;14.85;;;8.30;99.90;;;;;;5097175;28;20029;-64
2022/09/22 05:45:43;;;;;;;17.17;14.60;;;8.30;99.90;;;;;;5079746;28;20020;-63
2022/09/22 05:48:09;;;;;;;18.48;14.88;;;8.30;99.90;;;;;;5079722;28;20392;-64
2022/09/22 05:50:35;;;;;;;19.30;14.90;;;8.50;99.90;;;;;;5079680;28;20047;-63
2022/09/22 05:53:06;;;;;;;20.40;16.45;;;8.40;99.90;;;;;;5097151;28;20032;-64
2022/09/22 05:55:33;;;;;;;21.00;15.80;;;8.40;99.90;;;;;;5097081;28;20039;-63
2022/09/22 05:57:59;;;;;;;17.77;14.20;;;8.60;99.90;;;;;;5097108;28;20376;-63
2022/09/22 06:00:25;;;;;;;18.10;14.63;;;8.60;99.90;;;;;;5079557;28;20039;-64
2022/09/22 06:02:51;;;;;;;20.13;15.68;;;8.50;99.90;;;;;;5079808;28;20031;-63
2022/09/22 06:05:17;;;;;;;20.65;15.38;;;8.50;99.90;;;;;;5097268;28;20418;-63
2022/09/22 06:07:43;;;;;;;17.08;14.65;;;8.50;99.90;;;;;;5096872;28;20404;-64
2022/09/22 06:10:12;;;;;;;18.33;13.65;;;8.50;99.90;;;;;;5097003;28;20054;-64
2022/09/22 06:12:38;;;;;;;19.92;14.23;;;8.60;99.90;;;;;;5079541;28;20063;-63
2022/09/22 06:15:06;;;;;;;19.02;14.05;;;8.60;99.90;;;;;;5096960;28;20032;-63
2022/09/22 06:17:31;;;;;;;18.88;14.55;;;8.70;99.90;;;;;;5096993;28;20388;-63
2022/09/22 06:19:59;;;;;;;21.70;14.90;;;8.70;99.90;;;;;;5096976;28;20280;-63
2022/09/22 06:22:25;;;;;;;12.85;9.43;;;8.80;99.90;;;;;;5080137;28;20060;-61
2022/09/22 06:24:51;;;;;;;19.35;16.15;;;9.60;99.90;;;;;;5100854;28;20063;-63
2022/09/22 06:27:17;;;;;;;18.60;15.57;;;9.90;99.90;;;;;;5083329;28;20071;-63
2022/09/22 06:29:43;;;;;;;19.10;15.00;;;9.70;99.90;;;;;;5100855;28;20296;-64
2022/09/22 06:32:09;;;;;;;17.98;14.65;;;9.50;99.90;;;;;;5100915;28;20020;-64
2022/09/22 06:34:36;;;;;;;19.10;15.65;;;9.40;99.90;;;;;;5101194;28;20028;-63
2022/09/22 06:37:06;;;;;;;20.98;16.63;;;9.40;99.90;;;;;;5100886;28;20115;-63
2022/09/22 06:39:33;;;;;;;23.30;17.00;;;9.50;99.90;;;;;;5083487;28;20032;-63
2022/09/22 06:41:59;;;;;;;23.48;16.15;;;9.50;99.90;;;;;;5100552;28;20040;-63
2022/09/22 06:44:26;;;;;;;21.60;16.80;;;9.60;99.90;;;;;;5100646;28;20040;-63
2022/09/22 06:46:51;;;;;;;19.70;17.20;;;9.60;99.90;;;;;;5100587;28;20039;-63
2022/09/22 06:49:17;;;;;;;24.83;18.52;;;9.70;99.90;;;;;;5083512;28;20024;-63
2022/09/22 06:51:43;;;;;;;20.15;16.90;;;9.90;99.90;;;;;;5100624;28;20039;-64
2022/09/22 06:54:09;;;;;;;20.10;16.25;;;10.00;99.90;;;;;;5100537;28;20388;-63
2022/09/22 06:56:41;;;;;;;26.63;17.30;;;10.00;99.90;;;;;;5100573;28;20035;-63
2022/09/22 06:59:13;;;;;;;18.85;16.63;;;10.10;99.90;;;;;;5066145;28;20064;-62
2022/09/22 07:01:40;;;;;;;22.30;16.33;;;10.20;99.90;;;;;;5082828;28;20028;-63
2022/09/22 07:04:06;;;;;;;20.23;16.67;;;10.30;99.90;;;;;;5100280;28;20281;-63
2022/09/22 07:06:33;;;;;;;20.70;16.83;;;10.40;99.90;;;;;;5099282;28;20048;-62
2022/09/22 07:08:59;;;;;;;25.08;15.85;;;10.30;99.90;;;;;;5099580;28;20056;-62
2022/09/22 07:11:24;;;;;;;19.55;15.40;;;10.40;99.90;;;;;;5100200;28;20388;-62
2022/09/22 07:13:53;;;;;;;18.58;16.10;;;10.50;99.90;;;;;;5100265;28;20036;-61
2022/09/22 07:16:21;;;;;;;20.88;16.27;;;10.40;99.90;;;;;;5099540;28;20028;-62
2022/09/22 07:18:54;;;;;;;16.05;13.98;;;10.40;99.90;;;;;;5100872;28;20039;-63
2022/09/22 07:21:23;;;;;;;17.30;15.32;;;10.60;99.90;;;;;;5100292;28;20269;-62
2022/09/22 07:23:52;;;;;;;18.05;14.85;;;10.70;99.90;;;;;;5099959;28;20043;-62
2022/09/22 07:26:22;;;;;;;18.77;14.38;;;10.90;99.90;;;;;;5099256;28;20042;-62
2022/09/22 07:28:52;;;;;;;17.48;14.73;;;10.90;99.90;;;;;;5100308;28;20028;-62
2022/09/22 07:31:18;;;;;;;16.95;13.75;;;11.00;99.90;;;;;;5099161;28;20020;-62
2022/09/22 07:33:45;;;;;;;16.63;14.43;;;11.20;99.90;;;;;;5099704;28;20039;-63
2022/09/22 07:36:12;;;;;;;15.10;13.52;;;11.40;99.90;;;;;;5099352;28;20035;-63
2022/09/22 07:38:40;;;;;;;16.23;14.15;;;11.50;99.90;;;;;;5099783;28;20035;-62
2022/09/22 07:41:12;;;;;;;17.88;13.50;;;11.40;99.90;;;;;;5099084;28;20024;-63
2022/09/22 07:43:39;;;;;;;18.25;13.60;;;11.50;99.90;;;;;;5099800;28;20020;-63
2022/09/22 07:46:06;;;;;;;14.10;12.43;;;11.60;99.90;;;;;;5099638;28;20032;-63
2022/09/22 07:48:35;;;;;;;15.30;12.90;;;11.80;99.90;;;;;;5099583;28;20020;-63
2022/09/22 07:51:04;;;;;;;14.05;12.23;;;11.90;99.90;;;;;;5099476;28;20296;-62
2022/09/22 07:53:31;;;;;;;14.02;12.55;;;12.10;99.90;;;;;;5099378;28;20388;-62
2022/09/22 07:56:11;;;;;;;12.05;10.85;;;12.00;99.90;;;;;;5099444;28;20031;-63
2022/09/22 07:58:40;;;;;;;18.83;12.57;;;12.20;99.90;;;;;;5099816;28;20024;-62
2022/09/22 08:01:09;;;;;;;13.23;11.75;;;12.40;99.90;;;;;;5099214;28;20085;-63
2022/09/22 08:03:36;;;;;;;12.70;10.95;;;12.50;99.90;;;;;;5099303;28;20107;-62
2022/09/22 08:06:14;;;;;;;18.38;10.98;;;12.50;99.90;;;;;;5098706;28;20048;-63
2022/09/22 08:08:46;;;;;;;14.63;11.13;;;12.60;99.90;;;;;;5082199;28;20046;-62
2022/09/22 08:11:17;;;;;;;12.00;9.85;;;12.70;99.90;;;;;;5099559;28;20024;-62
2022/09/22 08:13:49;;;;;;;12.20;9.85;;;12.70;99.90;;;;;;5099112;28;20081;-62
2022/09/22 08:16:17;;;;;;;11.10;8.20;;;12.70;99.90;;;;;;5098529;28;20043;-62
2022/09/22 08:18:43;;;;;;;10.27;7.63;;;12.80;99.90;;;;;;5081457;28;20028;-62
2022/09/22 08:21:09;;;;;;;9.93;7.70;;;12.80;99.90;;;;;;5098580;28;20036;-62
2022/09/22 08:23:36;;;;;;;10.38;7.40;;;12.90;99.90;;;;;;5098116;28;20344;-63
2022/09/22 08:26:07;;;;;;;13.55;6.82;;;12.90;99.90;;;;;;5098829;28;20016;-62
2022/09/22 08:28:33;;;;;;;7.70;6.63;;;13.00;99.90;;;;;;5098224;28;20098;-62
2022/09/22 08:31:00;;;;;;;7.50;6.72;;;13.00;99.90;;;;;;5098799;28;20119;-62
2022/09/22 08:33:28;;;;;;;9.90;6.88;;;13.10;99.90;;;;;;5098735;28;20093;-62
2022/09/22 08:35:56;;;;;;;9.02;6.95;;;13.30;99.90;;;;;;5097974;28;20032;-61
2022/09/22 08:38:22;;;;;;;7.32;6.35;;;13.40;99.90;;;;;;5098073;28;20042;-62
2022/09/22 08:41:26;;;;;;;10.20;6.50;;;13.40;99.90;;;;;;5080978;28;20036;-62
2022/09/22 08:44:03;;;;;;;11.15;6.57;;;13.40;99.90;;;;;;5098555;28;20040;-62
2022/09/22 08:46:33;;;;;;;7.63;6.05;;;13.40;99.90;;;;;;5096750;28;20051;-62
2022/09/22 08:52:14;;;;;;;7.97;5.85;;;13.80;99.90;;;;;;5098353;28;20057;-62
2022/09/22 08:54:41;;;;;;;8.63;6.97;;;13.90;99.90;;;;;;5098379;28;20028;-62
2022/09/22 08:57:29;;;;;;;9.10;5.97;;;14.00;99.90;;;;;;5097502;28;20036;-62
2022/09/22 09:00:05;;;;;;;10.93;6.38;;;14.10;99.90;;;;;;5097797;28;20136;-62
2022/09/22 09:02:54;;;;;;;7.22;5.00;;;14.10;99.90;;;;;;5097483;28;20031;-63
2022/09/22 09:05:46;;;;;;;6.93;5.40;;;14.20;99.90;;;;;;5097359;28;20073;-62
2022/09/22 09:08:17;;;;;;;7.03;5.53;;;14.30;99.90;;;;;;5098464;28;20036;-62
2022/09/22 09:10:56;;;;;;;8.40;5.45;;;14.60;99.90;;;;;;5097957;28;20028;-63
2022/09/22 09:13:41;;;;;;;7.93;5.32;;;14.80;99.90;;;;;;5097143;28;20028;-63
2022/09/22 09:16:16;;;;;;;7.43;5.00;;;15.00;99.90;;;;;;5097662;28;20384;-63
2022/09/22 09:18:50;;;;;;;7.07;4.85;;;15.10;99.90;;;;;;5097192;28;20070;-63
2022/09/22 09:21:16;;;;;;;4.88;4.35;;;15.10;99.90;;;;;;5080216;28;20034;-63
2022/09/22 09:23:48;;;;;;;7.75;4.60;;;15.30;99.90;;;;;;5097661;28;20376;-63
2022/09/22 09:26:16;;;;;;;5.97;4.32;;;15.50;99.90;;;;;;5096990;28;20047;-65
2022/09/22 09:28:54;;;;;;;7.47;4.13;;;15.70;99.90;;;;;;5097674;28;20479;-64
2022/09/22 09:31:41;;;;;;;6.22;3.42;;;15.80;99.90;;;;;;5097681;28;20283;-63
2022/09/22 09:34:14;;;;;;;5.00;3.22;;;15.70;99.90;;;;;;5079989;28;20044;-63
2022/09/22 09:36:41;;;;;;;;;;;15.60;99.90;;;;;;5098036;28;20032;-63
2022/09/22 09:39:23;;;;;;;6.30;3.25;;;15.70;99.90;;;;;;5098009;28;19908;-63
2022/09/22 09:41:49;;;;;;;6.43;3.10;;;15.70;99.90;;;;;;5097570;28;20126;-63
2022/09/22 09:44:42;;;;;;;6.32;3.10;;;15.70;99.90;;;;;;5096794;28;20039;-63
2022/09/22 09:47:10;;;;;;;;;;;16.00;99.90;;;;;;5096189;28;20371;-62
2022/09/22 09:49:36;;;;;;;5.68;3.47;;;16.20;99.90;;;;;;5097447;28;19958;-62
2022/09/22 09:52:08;;;;;;;5.47;3.03;;;16.10;99.90;;;;;;5097447;28;20028;-63
2022/09/22 09:54:36;;;;;;;3.33;2.20;;;15.90;99.90;;;;;;5096771;28;20111;-63
2022/09/22 09:57:18;;;;;;;3.85;2.22;;;15.90;99.90;;;;;;5096897;28;20118;-64
2022/09/22 10:03:01;;;;;;;3.45;2.40;;;16.40;99.90;;;;;;5096482;28;20365;-64
2022/09/22 10:05:28;;;;;;;3.45;2.10;;;16.60;99.90;;;;;;5097205;28;20110;-64
2022/09/22 10:08:00;;;;;;;5.28;2.70;;;16.50;99.90;;;;;;5095615;28;20313;-64
2022/09/22 10:10:28;;;;;;;4.90;2.30;;;16.60;99.90;;;;;;5097150;28;20020;-64
2022/09/22 10:13:28;;;;;;;4.43;2.97;;;16.70;99.90;;;;;;5100181;22;20300;-63
2022/09/22 10:16:21;;;;;;;4.82;2.47;;;16.80;99.90;;;;;;5056837;28;20051;-64
2022/09/22 10:18:49;;;;;;;3.03;2.20;;;17.00;99.90;;;;;;5049297;28;20436;-63
2022/09/22 10:21:29;;;;;;;4.32;1.83;;;17.40;99.90;;;;;;5056057;28;20040;-65
2022/09/22 10:23:59;;;;;;;4.40;2.00;;;18.30;99.90;;;;;;5039450;28;20140;-64
2022/09/22 10:26:30;;;;;;;4.40;2.13;;;18.60;99.90;;;;;;5039281;28;20045;-63
2022/09/22 10:29:17;;;;;;;5.88;2.25;;;18.30;99.90;;;;;;5056637;28;20029;-63
2022/09/22 10:32:00;;;;;;;2.42;1.67;;;18.50;99.90;;;;;;5056750;28;20031;-63
2022/09/22 10:34:30;;;;;;;2.67;1.65;;;18.80;99.90;;;;;;5056553;28;20021;-64
2022/09/22 10:36:58;;;;;;;3.20;1.60;;;19.70;99.90;;;;;;5056875;28;20122;-63
2022/09/22 10:39:46;;;;;;;2.15;1.40;;;19.90;99.90;;;;;;5056547;28;20025;-63
2022/09/22 10:42:36;;;;;;;2.75;1.40;;;20.20;99.90;;;;;;5056570;28;20033;-62
2022/09/22 10:45:11;;;;;;;2.80;1.90;;;19.70;99.90;;;;;;5029715;28;20047;-62
2022/09/22 10:47:57;;;;;;;3.55;1.80;;;20.10;99.90;;;;;;5039195;28;20052;-63
2022/09/22 10:50:47;;;;;;;3.28;1.50;;;20.50;99.90;;;;;;5039089;28;20321;-62
2022/09/22 10:53:36;;;;;;;4.18;1.35;;;20.40;99.90;;;;;;5056549;28;20397;-63
2022/09/22 10:56:19;;;;;;;2.13;1.20;;;20.70;99.90;;;;;;5040052;28;20029;-62
2022/09/22 10:59:11;;;;;;;4.45;1.55;;;21.50;99.90;;;;;;5056443;28;20044;-62
2022/09/22 11:01:39;;;;;;;2.42;1.70;;;20.80;99.90;;;;;;5056419;28;20036;-63
2022/09/22 11:04:29;;;;;;;4.32;1.67;;;21.60;99.90;;;;;;5039172;28;20274;-63
2022/09/22 11:13:23;;;;;;;4.38;1.83;;;22.90;99.90;;;;;;5060427;28;20297;-63
2022/09/22 11:16:18;;;;;;;2.20;1.30;;;22.30;99.90;;;;;;5059977;28;20142;-63
2022/09/22 11:19:13;;;;;;;2.25;1.15;;;23.50;99.90;;;;;;5060391;28;20029;-63
2022/09/22 11:21:48;;;;;;;4.60;1.60;;;23.40;99.90;;;;;;5042607;28;20040;-63
2022/09/22 11:24:29;;;;;;;2.55;1.30;;;23.20;99.90;;;;;;5059812;28;20021;-63
2022/09/22 11:26:57;;;;;;;5.47;1.60;;;23.80;99.90;;;;;;5059742;28;20043;-62
2022/09/22 11:29:29;;;;;;;3.92;1.95;;;24.30;99.90;;;;;;5025944;28;20090;-63
2022/09/22 11:32:03;;;;;;;5.35;1.67;;;23.80;99.90;;;;;;5059741;28;20057;-63
2022/09/22 11:34:47;;;;;;;3.53;1.55;;;24.30;99.90;;;;;;5059715;28;20025;-63
2022/09/22 11:37:43;;;;;;;3.17;1.77;;;24.40;99.90;;;;;;5059834;28;20056;-63
2022/09/22 11:40:25;;;;;;;2.30;1.50;;;23.70;99.90;;;;;;5059534;28;20037;-64
2022/09/22 11:42:58;;;;;;;2.97;1.40;;;24.90;99.90;;;;;;5059498;28;20045;-64
2022/09/22 11:45:58;;;;;;;3.50;1.13;;;25.70;99.90;;;;;;5059484;28;20047;-64
2022/09/22 11:48:47;;;;;;;1.45;0.90;;;26.20;96.40;;;;;;5059368;28;20039;-64
2022/09/22 11:51:28;;;;;;;2.38;0.90;;;25.50;94.90;;;;;;5059501;28;20036;-65
2022/09/22 11:54:06;;;;;;;2.15;1.02;;;26.10;93.70;;;;;;5059355;28;20024;-64
2022/09/22 11:56:54;;;;;;;3.67;1.10;;;24.20;96.60;;;;;;5059202;28;20036;-63
2022/09/22 11:59:40;;;;;;;2.42;1.33;;;24.50;96.60;;;;;;5059167;28;20308;-63
2022/09/22 12:02:25;;;;;;;1.85;1.10;;;24.30;96.60;;;;;;5042179;28;20029;-63
2022/09/22 12:05:00;;;;;;;2.83;1.17;;;24.30;97.10;;;;;;5058988;28;20060;-63
2022/09/22 12:07:33;;;;;;;3.75;1.50;;;24.30;97.10;;;;;;5041604;28;20113;-63
2022/09/22 12:10:16;;;;;;;4.00;1.20;;;24.50;97.70;;;;;;5059011;28;20017;-62
2022/09/22 12:12:47;;;;;;;1.75;1.20;;;24.90;97.40;;;;;;5058888;28;20039;-63
2022/09/22 12:15:34;;;;;;;2.50;1.10;;;25.20;95.50;;;;;;5058891;28;20112;-63
2022/09/22 12:18:09;;;;;;;3.47;1.30;;;25.00;96.70;;;;;;5058819;28;20037;-63
2022/09/22 12:20:50;;;;;;;2.72;1.52;;;24.70;96.70;;;;;;5058577;28;20120;-63
2022/09/22 12:23:32;;;;;;;5.00;2.10;;;23.60;99.30;;;;;;5041350;28;20511;-62
2022/09/22 12:26:11;;;;;;;7.13;2.08;;;23.80;99.90;;;;;;5058691;28;20324;-63
2022/09/22 12:28:42;;;;;;;6.45;1.92;;;23.90;99.90;;;;;;5058556;28;20047;-63
2022/09/22 12:31:14;;;;;;;3.72;1.90;;;24.10;99.40;;;;;;5058762;28;20028;-63
2022/09/22 12:33:51;;;;;;;1.52;1.30;;;24.00;99.90;;;;;;5058493;28;20125;-64
2022/09/22 12:36:34;;;;;;;2.17;1.27;;;24.50;98.40;;;;;;5058452;28;20036;-63
2022/09/22 12:39:23;;;;;;;3.35;1.10;;;24.90;97.90;;;;;;5058416;28;20083;-64
2022/09/22 12:42:20;;;;;;;3.33;0.93;;;24.30;96.80;;;;;;5058380;28;20028;-63
2022/09/22 12:45:24;;;;;;;2.38;1.00;;;23.90;98.10;;;;;;5058646;28;20053;-63
2022/09/22 12:47:53;;;;;;;2.90;1.00;;;23.90;98.50;;;;;;5040666;28;20098;-62
2022/09/22 12:50:22;;;;;;;1.73;1.13;;;24.50;96.80;;;;;;5024422;28;20368;-62
2022/09/22 12:52:49;;;;;;;2.42;1.00;;;25.30;95.50;;;;;;5057959;28;20274;-62
2022/09/22 12:55:36;;;;;;;2.50;0.85;;;25.60;94.90;;;;;;5056789;28;20021;-63
2022/09/22 12:58:23;;;;;;;1.95;0.95;;;25.90;94.70;;;;;;5057110;28;20029;-62
2022/09/22 13:00:50;;;;;;;4.68;1.25;;;25.70;93.70;;;;;;5057810;28;20119;-63
2022/09/22 13:03:25;;;;;;;1.90;1.10;;;26.70;92.60;;;;;;5040453;28;20430;-62
2022/09/22 13:06:20;;;;;;;2.55;0.80;;;27.50;90.60;;;;;;5057880;28;20033;-62
2022/09/22 13:08:52;;;;;;;2.35;0.60;;;27.50;88.90;;;;;;5040181;28;20044;-62
2022/09/22 13:11:25;;;;;;;2.88;0.45;;;26.80;85.90;;;;;;5058287;28;20108;-62
2022/09/22 13:13:51;;;;;;;1.70;1.00;;;26.00;89.00;;;;;;5040275;28;20056;-69
2022/09/22 13:16:17;;;;;;;3.20;0.77;;;24.20;90.50;;;;;;5040342;28;20409;-63
2022/09/22 13:18:51;;;;;;;2.15;0.90;;;23.10;93.10;;;;;;5057552;28;20044;-51
2022/09/22 13:21:28;;;;;;;1.17;0.90;;;22.50;93.10;;;;;;5056812;28;20059;-49